Time;durP1;ratioP1;P1;durP2;ratioP2;P2;SDS_P1;SDS_P2;PMS_P1;PMS_P2;Temp;Humidity;BMP_temperature;BMP_pressure;BME280_temperature;BME280_humidity;BME280_pressure;Samples;Min_cycle;Max_cycle;Signal;HPM_P1;HPM_P2
2021/01/02 00:00:49;;;;;;;21.27;7.10;;;6.30;99.90;;;;;;5031244;28;20211;-80
2021/01/02 00:03:49;;;;;;;13.77;7.63;;;6.30;99.90;;;;;;5029867;28;20668;-80
2021/01/02 00:06:23;;;;;;;13.55;6.85;;;6.20;99.90;;;;;;5029672;28;20652;-81
2021/01/02 00:08:50;;;;;;;12.75;6.88;;;6.20;99.90;;;;;;5029930;28;20287;-81
2021/01/02 00:11:37;;;;;;;20.83;7.10;;;6.30;99.90;;;;;;5030410;28;20220;-81
2021/01/02 00:14:10;;;;;;;17.20;7.18;;;6.20;99.90;;;;;;5030759;28;20211;-81
2021/01/02 00:17:04;;;;;;;12.93;7.13;;;6.20;99.90;;;;;;5030990;28;20208;-81
2021/01/02 00:19:53;;;;;;;11.05;6.10;;;6.20;99.90;;;;;;4991817;28;20195;-81
2021/01/02 00:22:31;;;;;;;16.85;7.00;;;6.30;99.90;;;;;;5029824;28;20204;-80
2021/01/02 00:25:00;;;;;;;17.13;6.65;;;6.30;99.90;;;;;;5030643;28;20199;-81
2021/01/02 00:27:32;;;;;;;12.02;6.18;;;6.30;99.90;;;;;;5029386;28;20219;-81
2021/01/02 00:30:08;;;;;;;12.68;6.03;;;6.30;99.90;;;;;;5032388;28;20208;-80
2021/01/02 00:32:55;;;;;;;12.50;6.25;;;6.30;99.90;;;;;;5029704;28;20234;-80
2021/01/02 00:35:22;;;;;;;12.90;6.43;;;6.30;99.90;;;;;;5026424;28;20203;-81
2021/01/02 00:37:58;;;;;;;13.02;6.22;;;6.30;99.90;;;;;;5031580;28;20283;-81
2021/01/02 00:40:26;;;;;;;13.25;6.18;;;6.40;99.90;;;;;;5030781;28;20640;-81
2021/01/02 00:42:53;;;;;;;13.30;6.05;;;6.40;99.90;;;;;;5030417;28;20203;-81
2021/01/02 00:45:21;;;;;;;11.98;6.25;;;6.40;99.90;;;;;;5030781;28;20603;-81
2021/01/02 00:47:48;;;;;;;12.68;5.68;;;6.40;99.90;;;;;;5027975;28;20210;-81
2021/01/02 00:50:16;;;;;;;21.83;5.57;;;6.40;99.90;;;;;;5031274;28;20230;-81
2021/01/02 00:53:28;;;;;;;11.05;4.55;;;6.30;99.90;;;;;;5028944;28;20204;-81
2021/01/02 00:56:26;;;;;;;12.80;4.20;;;6.30;99.90;;;;;;5029976;28;20203;-81
2021/01/02 00:59:23;;;;;;;9.70;3.88;;;6.30;99.90;;;;;;5028619;28;20199;-80
2021/01/02 01:02:06;;;;;;;13.55;4.35;;;6.30;99.90;;;;;;5030919;28;20206;-81
2021/01/02 01:05:02;;;;;;;10.73;3.90;;;6.30;99.90;;;;;;5028772;28;20205;-81
2021/01/02 01:07:32;;;;;;;8.85;4.45;;;6.40;99.90;;;;;;5028675;28;20195;-81
2021/01/02 01:10:02;;;;;;;7.65;4.28;;;6.40;99.90;;;;;;5029890;28;20223;-81
2021/01/02 01:12:29;;;;;;;12.77;4.32;;;6.40;99.90;;;;;;5028830;28;20207;-81
2021/01/02 01:14:56;;;;;;;8.35;4.03;;;6.40;99.90;;;;;;5027544;28;20613;-81
2021/01/02 01:17:24;;;;;;;8.60;3.67;;;6.40;99.90;;;;;;5029091;28;20204;-81
2021/01/02 01:19:55;;;;;;;7.70;3.88;;;6.40;99.90;;;;;;5031335;28;20206;-80
2021/01/02 01:22:25;;;;;;;12.70;3.63;;;6.40;99.90;;;;;;5033740;28;20222;-81
2021/01/02 01:25:02;;;;;;;14.63;4.25;;;6.40;99.90;;;;;;5035143;28;20675;-81
2021/01/02 01:27:32;;;;;;;8.15;4.03;;;6.40;99.90;;;;;;5032306;28;20905;-80
2021/01/02 01:30:01;;;;;;;8.57;4.53;;;6.40;99.90;;;;;;5034873;28;20214;-80
2021/01/02 01:32:30;;;;;;;15.20;5.00;;;6.40;99.90;;;;;;5033621;28;20702;-80
2021/01/02 01:34:59;;;;;;;10.00;4.80;;;6.40;99.90;;;;;;5035334;28;20204;-80
2021/01/02 01:37:28;;;;;;;10.85;4.85;;;6.40;99.90;;;;;;5033666;28;20203;-80
2021/01/02 01:39:54;;;;;;;14.77;5.07;;;6.40;99.90;;;;;;5035621;28;20196;-79
2021/01/02 01:42:37;;;;;;;7.65;4.85;;;6.30;99.90;;;;;;5033932;28;20196;-81
2021/01/02 01:45:23;;;;;;;10.77;5.28;;;6.30;99.90;;;;;;5034653;28;20192;-81
2021/01/02 01:48:04;;;;;;;13.88;5.15;;;6.30;99.90;;;;;;5034105;28;20200;-80
2021/01/02 01:50:46;;;;;;;10.90;5.47;;;6.30;99.90;;;;;;5032814;28;20215;-80
2021/01/02 01:53:45;;;;;;;11.70;5.57;;;6.30;99.90;;;;;;5034292;28;20211;-80
2021/01/02 01:56:16;;;;;;;11.88;5.80;;;6.20;99.90;;;;;;5034805;28;20273;-81
2021/01/02 01:59:21;;;;;;;13.55;5.80;;;6.30;99.90;;;;;;5033278;28;20203;-81
2021/01/02 02:01:50;;;;;;;14.50;5.38;;;6.30;99.90;;;;;;5027590;28;20208;-80
2021/01/02 02:04:49;;;;;;;10.40;5.53;;;6.30;99.90;;;;;;5033316;28;20231;-81
2021/01/02 02:07:17;;;;;;;14.85;5.97;;;6.30;99.90;;;;;;5029563;28;20222;-81
2021/01/02 02:09:45;;;;;;;11.65;5.90;;;6.30;99.90;;;;;;5034105;28;20250;-81
2021/01/02 02:12:21;;;;;;;13.57;6.32;;;6.30;99.90;;;;;;5034084;28;20206;-81
2021/01/02 02:14:54;;;;;;;11.63;5.65;;;6.30;99.90;;;;;;5033418;28;20203;-80
2021/01/02 02:17:25;;;;;;;13.23;5.85;;;6.40;99.90;;;;;;5032469;28;20234;-80
2021/01/02 02:19:56;;;;;;;10.52;5.80;;;6.40;99.90;;;;;;5034619;28;20250;-81
2021/01/02 02:22:24;;;;;;;10.32;5.60;;;6.40;99.90;;;;;;5032742;28;20211;-81
2021/01/02 02:24:52;;;;;;;10.48;5.75;;;6.40;99.90;;;;;;5034765;28;20683;-81
2021/01/02 02:27:24;;;;;;;14.45;5.68;;;6.40;99.90;;;;;;5032569;28;20220;-81
2021/01/02 02:30:05;;;;;;;14.85;6.30;;;6.40;99.90;;;;;;5031858;28;20708;-81
2021/01/02 02:32:38;;;;;;;13.75;5.57;;;6.40;99.90;;;;;;5030300;28;20717;-81
2021/01/02 02:35:07;;;;;;;15.38;5.95;;;6.40;99.90;;;;;;5033030;28;20257;-80
2021/01/02 02:37:36;;;;;;;7.85;5.50;;;6.40;99.90;;;;;;5032789;28;20192;-80
2021/01/02 02:40:04;;;;;;;10.15;5.05;;;6.40;99.90;;;;;;5033220;28;20196;-80
2021/01/02 02:42:33;;;;;;;11.52;5.38;;;6.40;99.90;;;;;;5031976;28;20216;-80
2021/01/02 02:45:02;;;;;;;9.85;5.30;;;6.40;99.90;;;;;;5032095;28;20200;-81
2021/01/02 02:47:31;;;;;;;11.30;5.32;;;6.40;99.90;;;;;;5032173;28;20218;-80
2021/01/02 02:50:00;;;;;;;10.18;5.38;;;6.40;99.90;;;;;;5033864;28;20610;-80
2021/01/02 02:52:34;;;;;;;11.63;5.07;;;6.40;99.90;;;;;;5032175;28;20216;-80
2021/01/02 02:55:02;;;;;;;10.52;5.10;;;6.40;99.90;;;;;;5033664;28;20253;-80
2021/01/02 02:57:30;;;;;;;12.57;4.68;;;6.40;99.90;;;;;;5032548;28;20215;-81
2021/01/02 02:59:56;;;;;;;8.63;5.22;;;6.40;99.90;;;;;;5031551;28;20267;-81
2021/01/02 03:02:23;;;;;;;10.77;5.25;;;6.40;99.90;;;;;;5031232;28;20204;-82
2021/01/02 03:04:50;;;;;;;12.50;4.97;;;6.40;99.90;;;;;;5031130;28;20227;-81
2021/01/02 03:07:17;;;;;;;13.90;5.45;;;6.30;99.90;;;;;;5032344;28;20211;-80
2021/01/02 03:09:45;;;;;;;14.02;5.45;;;6.30;99.90;;;;;;5031725;28;20200;-81
2021/01/02 03:12:14;;;;;;;10.02;5.10;;;6.30;99.90;;;;;;5031472;28;20651;-82
2021/01/02 03:14:40;;;;;;;13.60;4.85;;;6.30;99.90;;;;;;5030853;28;20666;-81
2021/01/02 03:17:06;;;;;;;13.80;5.40;;;6.20;99.90;;;;;;5032530;28;20207;-80
2021/01/02 03:19:33;;;;;;;13.27;4.90;;;6.20;99.90;;;;;;5033309;28;20660;-80
2021/01/02 03:21:59;;;;;;;12.65;5.03;;;6.20;99.90;;;;;;5029891;28;20565;-80
2021/01/02 03:24:26;;;;;;;10.20;4.70;;;6.20;99.90;;;;;;5031404;28;20266;-81
2021/01/02 03:26:53;;;;;;;14.00;5.28;;;6.20;99.90;;;;;;5031812;28;20215;-80
2021/01/02 03:29:19;;;;;;;10.73;4.93;;;6.20;99.90;;;;;;5032198;28;20608;-80
2021/01/02 03:31:45;;;;;;;7.35;3.83;;;6.20;99.90;;;;;;5030908;28;20300;-80
2021/01/02 03:34:12;;;;;;;12.30;5.03;;;6.20;99.90;;;;;;5032605;28;20580;-80
2021/01/02 03:36:38;;;;;;;16.17;4.68;;;6.20;99.90;;;;;;5032292;28;20591;-80
2021/01/02 03:39:05;;;;;;;13.10;4.95;;;6.10;99.90;;;;;;5031561;28;20699;-80
2021/01/02 03:41:32;;;;;;;8.80;4.80;;;6.10;99.90;;;;;;5031520;28;20570;-80
2021/01/02 03:44:00;;;;;;;10.10;4.40;;;6.10;99.90;;;;;;5030639;28;20195;-80
2021/01/02 03:46:28;;;;;;;13.13;4.60;;;6.10;99.90;;;;;;5032241;28;20235;-80
2021/01/02 03:48:55;;;;;;;6.93;3.97;;;6.10;99.90;;;;;;5029698;28;20203;-80
2021/01/02 03:51:23;;;;;;;10.70;4.50;;;6.00;99.90;;;;;;5030974;28;20281;-80
2021/01/02 03:53:49;;;;;;;8.15;4.32;;;6.00;99.90;;;;;;5027784;28;20196;-80
2021/01/02 03:56:15;;;;;;;7.95;4.70;;;6.00;99.90;;;;;;5031578;28;20635;-81
2021/01/02 03:58:43;;;;;;;9.13;4.55;;;6.00;99.90;;;;;;5029832;28;20676;-81
2021/01/02 04:01:13;;;;;;;11.27;4.65;;;6.00;99.90;;;;;;5030633;28;20604;-80
2021/01/02 04:03:40;;;;;;;9.68;4.03;;;6.00;99.90;;;;;;5031410;28;21526;-81
2021/01/02 04:06:07;;;;;;;10.88;4.38;;;6.00;99.90;;;;;;5030799;28;20582;-81
2021/01/02 04:08:33;;;;;;;13.43;5.05;;;6.00;99.90;;;;;;5030391;28;20203;-81
2021/01/02 04:11:00;;;;;;;9.23;4.45;;;6.00;99.90;;;;;;5031989;28;20223;-80
2021/01/02 04:13:26;;;;;;;8.95;4.22;;;6.00;99.90;;;;;;5029982;28;20298;-81
2021/01/02 04:15:55;;;;;;;11.15;4.80;;;6.00;99.90;;;;;;5030170;28;20212;-81
2021/01/02 04:18:21;;;;;;;11.30;4.55;;;6.10;99.90;;;;;;5029563;28;20202;-80
2021/01/02 04:20:48;;;;;;;7.32;4.45;;;6.10;99.90;;;;;;5031784;28;20544;-80
2021/01/02 04:23:15;;;;;;;12.68;4.53;;;6.10;99.90;;;;;;5027073;28;20210;-80
2021/01/02 04:25:41;;;;;;;7.38;4.28;;;6.10;99.90;;;;;;5030076;28;20211;-81
2021/01/02 04:28:09;;;;;;;7.00;3.38;;;6.10;99.90;;;;;;5029870;28;20223;-80
2021/01/02 04:30:39;;;;;;;8.45;4.00;;;6.10;99.90;;;;;;5031135;28;20295;-81
2021/01/02 04:33:06;;;;;;;9.75;4.20;;;6.10;99.90;;;;;;5029944;28;20226;-80
2021/01/02 04:35:32;;;;;;;10.88;4.25;;;6.10;99.90;;;;;;5030934;28;20214;-80
2021/01/02 04:38:00;;;;;;;6.05;3.90;;;6.10;99.90;;;;;;5030740;28;20204;-80
2021/01/02 04:40:27;;;;;;;7.57;4.07;;;6.10;99.90;;;;;;5029688;28;20604;-81
2021/01/02 04:42:54;;;;;;;9.82;3.95;;;6.10;99.90;;;;;;5028870;28;20660;-81
2021/01/02 04:45:22;;;;;;;8.13;4.00;;;6.10;99.90;;;;;;5029729;28;20277;-81
2021/01/02 04:47:50;;;;;;;9.38;4.30;;;6.00;99.90;;;;;;5029081;28;20200;-81
2021/01/02 04:50:18;;;;;;;11.75;4.53;;;6.10;99.90;;;;;;5030574;28;20590;-81
2021/01/02 04:52:46;;;;;;;11.43;4.25;;;6.10;99.90;;;;;;5030416;28;20242;-80
2021/01/02 04:55:17;;;;;;;18.40;4.70;;;6.10;99.90;;;;;;5028586;28;20215;-80
2021/01/02 04:57:46;;;;;;;15.93;4.60;;;6.10;99.90;;;;;;5028974;28;20254;-80
2021/01/02 05:00:15;;;;;;;17.20;4.47;;;6.20;99.90;;;;;;5029527;28;21780;-80
2021/01/02 05:02:44;;;;;;;12.52;4.68;;;6.20;99.90;;;;;;5029274;28;20200;-80
2021/01/02 05:05:11;;;;;;;8.65;4.50;;;6.20;99.90;;;;;;5029909;28;20840;-81
2021/01/02 05:07:38;;;;;;;8.18;4.30;;;6.20;99.90;;;;;;5028772;28;20208;-81
2021/01/02 05:10:06;;;;;;;11.75;4.85;;;6.20;99.90;;;;;;5030933;28;20215;-81
2021/01/02 05:12:34;;;;;;;15.07;5.72;;;6.20;99.90;;;;;;5030207;28;20191;-80
2021/01/02 05:15:03;;;;;;;15.48;6.03;;;6.20;99.90;;;;;;5029353;28;20207;-81
2021/01/02 05:17:30;;;;;;;17.80;5.72;;;6.20;99.90;;;;;;5030247;28;20990;-82
2021/01/02 05:20:05;;;;;;;14.35;5.07;;;6.20;99.90;;;;;;5030660;28;20196;-81
2021/01/02 05:22:32;;;;;;;14.50;5.68;;;6.20;99.90;;;;;;5030144;28;20195;-80
2021/01/02 05:25:06;;;;;;;24.05;5.55;;;6.30;99.90;;;;;;5030478;28;20196;-81
2021/01/02 05:27:34;;;;;;;10.60;5.30;;;6.20;99.90;;;;;;5028382;28;20206;-81
2021/01/02 05:30:21;;;;;;;19.77;5.35;;;6.20;99.90;;;;;;5029430;28;20243;-81
2021/01/02 05:32:58;;;;;;;13.38;5.65;;;6.20;99.90;;;;;;5027751;28;20235;-80
2021/01/02 05:35:26;;;;;;;11.85;5.90;;;6.20;99.90;;;;;;5028849;28;20206;-81
2021/01/02 05:37:52;;;;;;;13.95;5.55;;;6.20;99.90;;;;;;5026982;28;20266;-81
2021/01/02 05:40:36;;;;;;;11.50;5.20;;;6.20;99.90;;;;;;5031050;28;20192;-81
2021/01/02 05:43:03;;;;;;;17.38;5.43;;;6.20;99.90;;;;;;5025209;28;20786;-80
2021/01/02 05:45:30;;;;;;;10.65;5.60;;;6.20;99.90;;;;;;5029309;28;20204;-81
2021/01/02 05:47:57;;;;;;;16.13;5.50;;;6.20;99.90;;;;;;5031620;28;20192;-81
2021/01/02 05:50:24;;;;;;;12.93;5.85;;;6.10;99.90;;;;;;5030538;28;20570;-80
2021/01/02 05:52:52;;;;;;;13.93;5.70;;;6.10;99.90;;;;;;5029837;28;20223;-81
2021/01/02 05:55:31;;;;;;;17.50;5.90;;;6.00;99.90;;;;;;5028598;28;20661;-81
2021/01/02 05:58:15;;;;;;;21.83;5.32;;;6.00;99.90;;;;;;5028611;28;20203;-80
2021/01/02 06:00:44;;;;;;;13.18;5.45;;;6.00;99.90;;;;;;5029434;28;20200;-81
2021/01/02 06:03:25;;;;;;;13.05;5.30;;;6.00;99.90;;;;;;5029767;28;20223;-81
2021/01/02 06:05:55;;;;;;;21.13;7.10;;;5.90;99.90;;;;;;5030196;28;20750;-82
2021/01/02 06:08:29;;;;;;;19.40;5.57;;;5.90;99.90;;;;;;5031941;28;20204;-81
2021/01/02 06:10:58;;;;;;;9.25;5.20;;;5.90;99.90;;;;;;5031787;28;20224;-80
2021/01/02 06:13:27;;;;;;;10.75;4.70;;;5.90;99.90;;;;;;5030682;28;20667;-80
2021/01/02 06:15:57;;;;;;;11.23;5.05;;;5.90;99.90;;;;;;5033237;28;20227;-82
2021/01/02 06:18:24;;;;;;;11.88;5.28;;;5.80;99.90;;;;;;5033876;28;20683;-81
2021/01/02 06:20:50;;;;;;;15.35;6.05;;;5.80;99.90;;;;;;5032224;28;20207;-81
2021/01/02 06:23:18;;;;;;;10.27;5.68;;;5.80;99.90;;;;;;5032824;28;20200;-82
2021/01/02 06:25:48;;;;;;;10.48;5.15;;;5.80;99.90;;;;;;5033672;28;20295;-82
2021/01/02 06:28:15;;;;;;;12.70;5.28;;;5.80;99.90;;;;;;5033394;28;20208;-82
2021/01/02 06:30:43;;;;;;;15.88;5.50;;;5.80;99.90;;;;;;5033750;28;20302;-80
2021/01/02 06:33:14;;;;;;;14.00;5.93;;;5.80;99.90;;;;;;5032742;28;20232;-80
2021/01/02 06:35:41;;;;;;;9.07;5.05;;;5.80;99.90;;;;;;5037344;28;20257;-82
2021/01/02 06:38:14;;;;;;;14.45;5.82;;;5.80;99.90;;;;;;5034767;28;20291;-83
2021/01/02 06:40:45;;;;;;;11.30;5.95;;;5.80;99.90;;;;;;5033491;28;20196;-82
2021/01/02 06:43:15;;;;;;;14.20;6.63;;;5.80;99.90;;;;;;5033313;28;20578;-82
2021/01/02 06:46:03;;;;;;;15.50;6.22;;;5.80;99.90;;;;;;5033916;28;20216;-81
2021/01/02 06:48:46;;;;;;;14.07;5.90;;;5.90;99.90;;;;;;5032992;28;20208;-82
2021/01/02 06:51:34;;;;;;;15.95;5.80;;;5.90;99.90;;;;;;5032660;28;20222;-81
2021/01/02 06:54:01;;;;;;;11.18;5.43;;;5.90;99.90;;;;;;5032037;28;20279;-79
2021/01/02 06:56:32;;;;;;;15.38;5.75;;;5.90;99.90;;;;;;5032395;28;20565;-80
2021/01/02 06:58:59;;;;;;;18.60;7.20;;;5.90;99.90;;;;;;5032439;28;20204;-81
2021/01/02 07:01:40;;;;;;;15.02;7.03;;;5.90;99.90;;;;;;5033998;28;20258;-80
2021/01/02 07:04:07;;;;;;;20.95;5.78;;;5.90;99.90;;;;;;5032021;28;20265;-80
2021/01/02 07:06:41;;;;;;;16.83;5.78;;;5.90;99.90;;;;;;5032186;28;20215;-80
2021/01/02 07:09:23;;;;;;;12.55;5.93;;;5.90;99.90;;;;;;5032018;28;20192;-80
2021/01/02 07:11:51;;;;;;;15.82;6.05;;;5.90;99.90;;;;;;5029636;28;20222;-81
2021/01/02 07:14:26;;;;;;;12.30;5.45;;;5.90;99.90;;;;;;5030720;28;20215;-80
2021/01/02 07:16:59;;;;;;;17.10;5.60;;;5.90;99.90;;;;;;5032317;28;20357;-81
2021/01/02 07:19:33;;;;;;;15.80;5.90;;;5.90;99.90;;;;;;5031176;28;20258;-81
2021/01/02 07:22:01;;;;;;;13.00;5.53;;;5.90;99.90;;;;;;5032912;28;20202;-81
2021/01/02 07:24:28;;;;;;;16.23;5.50;;;5.90;99.90;;;;;;5047720;28;20889;-82
2021/01/02 07:26:59;;;;;;;14.05;5.38;;;6.00;99.90;;;;;;5032044;28;20691;-80
2021/01/02 07:29:26;;;;;;;14.60;5.32;;;5.90;99.90;;;;;;5027831;28;20204;-81
2021/01/02 07:31:53;;;;;;;11.60;4.95;;;6.00;99.90;;;;;;5032549;28;20220;-81
2021/01/02 07:34:22;;;;;;;15.27;5.50;;;5.90;99.90;;;;;;5031710;28;20274;-80
2021/01/02 07:36:49;;;;;;;17.98;5.78;;;5.90;99.90;;;;;;5031437;28;20203;-82
2021/01/02 07:39:16;;;;;;;10.45;5.57;;;5.90;99.90;;;;;;5031649;28;20219;-78
2021/01/02 07:41:43;;;;;;;13.45;5.35;;;5.90;99.90;;;;;;5030553;28;20192;-78
2021/01/02 07:44:09;;;;;;;11.70;6.10;;;5.90;99.90;;;;;;5032408;28;20219;-81
2021/01/02 07:46:42;;;;;;;14.57;6.10;;;5.90;99.90;;;;;;5029812;28;20227;-80
2021/01/02 07:49:09;;;;;;;16.42;6.65;;;5.80;99.90;;;;;;5032890;28;20232;-79
2021/01/02 07:51:37;;;;;;;15.73;7.03;;;5.80;99.90;;;;;;5029045;28;20257;-80
2021/01/02 07:54:04;;;;;;;16.17;6.25;;;5.80;99.90;;;;;;5033595;28;20250;-80
2021/01/02 07:56:35;;;;;;;13.45;6.03;;;5.80;99.90;;;;;;5036143;28;20195;-81
2021/01/02 07:59:24;;;;;;;12.48;5.63;;;5.80;99.90;;;;;;5037482;28;20648;-80
2021/01/02 08:01:51;;;;;;;9.57;5.85;;;5.70;99.90;;;;;;5030647;28;20207;-81
2021/01/02 08:04:19;;;;;;;13.30;5.95;;;5.70;99.90;;;;;;5031210;28;20200;-81
2021/01/02 08:06:47;;;;;;;11.35;5.80;;;5.70;99.90;;;;;;5030827;28;20562;-78
2021/01/02 08:09:14;;;;;;;12.75;6.35;;;5.70;99.90;;;;;;5030478;28;20255;-80
2021/01/02 08:11:51;;;;;;;15.75;6.88;;;5.70;99.90;;;;;;5030072;28;20220;-80
2021/01/02 08:14:18;;;;;;;14.95;6.43;;;5.70;99.90;;;;;;5030614;28;20679;-79
2021/01/02 08:17:02;;;;;;;16.23;6.22;;;5.60;99.90;;;;;;5029867;28;20199;-80
2021/01/02 08:19:31;;;;;;;12.23;6.32;;;5.60;99.90;;;;;;5030559;28;20207;-79
2021/01/02 08:21:59;;;;;;;15.05;6.90;;;5.70;99.90;;;;;;5030573;28;20208;-79
2021/01/02 08:24:25;;;;;;;16.10;8.05;;;5.70;99.90;;;;;;5030611;28;20300;-79
2021/01/02 08:26:52;;;;;;;15.32;7.35;;;5.70;99.90;;;;;;5028604;28;20686;-79
2021/01/02 08:29:19;;;;;;;16.50;7.47;;;5.70;99.90;;;;;;5029849;28;21036;-80
2021/01/02 08:31:51;;;;;;;19.55;7.68;;;5.70;99.90;;;;;;5029408;28;20303;-77
2021/01/02 08:34:29;;;;;;;20.60;8.57;;;5.70;99.90;;;;;;5029722;28;20280;-79
2021/01/02 08:37:02;;;;;;;27.15;10.35;;;5.80;99.90;;;;;;5028085;28;20203;-80
2021/01/02 08:39:28;;;;;;;24.75;10.10;;;5.80;99.90;;;;;;5029646;28;20585;-79
2021/01/02 08:41:56;;;;;;;26.63;11.23;;;5.80;99.90;;;;;;5028725;28;20208;-80
2021/01/02 08:44:24;;;;;;;33.40;12.27;;;5.80;99.90;;;;;;5029665;28;20556;-79
2021/01/02 08:46:51;;;;;;;29.98;11.07;;;5.90;99.90;;;;;;5028514;28;20218;-79
2021/01/02 08:49:44;;;;;;;24.92;10.95;;;5.90;99.90;;;;;;5031398;28;20204;-79
2021/01/02 08:52:16;;;;;;;26.98;10.98;;;5.90;99.90;;;;;;5028349;28;20314;-78
2021/01/02 08:54:42;;;;;;;25.13;11.63;;;5.90;99.90;;;;;;5028393;28;20305;-78
2021/01/02 08:57:32;;;;;;;24.65;10.13;;;6.00;99.90;;;;;;5028335;28;20200;-78
2021/01/02 09:00:10;;;;;;;28.23;10.68;;;6.00;99.90;;;;;;5030343;28;20204;-78
2021/01/02 09:02:37;;;;;;;31.13;12.23;;;6.00;99.90;;;;;;5026970;28;20219;-78
2021/01/02 09:05:05;;;;;;;28.00;12.80;;;6.00;99.90;;;;;;5028196;28;20206;-78
2021/01/02 09:07:33;;;;;;;27.95;10.18;;;6.10;99.90;;;;;;5022319;28;20200;-79
2021/01/02 09:10:12;;;;;;;22.52;10.23;;;6.10;99.90;;;;;;5030405;28;20199;-78
2021/01/02 09:12:39;;;;;;;22.73;8.60;;;6.10;99.90;;;;;;5028003;28;20199;-78
2021/01/02 09:15:06;;;;;;;19.75;7.40;;;6.10;99.90;;;;;;5030306;28;20195;-78
2021/01/02 09:17:46;;;;;;;17.15;6.72;;;6.10;99.90;;;;;;5028693;28;20204;-78
2021/01/02 09:20:17;;;;;;;18.58;7.53;;;6.10;99.90;;;;;;5028856;28;20214;-78
2021/01/02 09:22:54;;;;;;;36.08;13.18;;;6.10;99.90;;;;;;5028701;28;20196;-78
2021/01/02 09:25:27;;;;;;;25.77;10.45;;;6.10;99.90;;;;;;5028757;28;20204;-80
2021/01/02 09:27:54;;;;;;;17.88;7.55;;;6.10;99.90;;;;;;5028308;28;20681;-79
2021/01/02 09:30:21;;;;;;;12.90;6.43;;;6.20;99.90;;;;;;5028944;28;20203;-78
2021/01/02 09:32:47;;;;;;;19.92;5.97;;;6.10;99.90;;;;;;5028440;28;20235;-79
2021/01/02 09:35:13;;;;;;;11.85;5.72;;;6.10;99.90;;;;;;5027030;28;20200;-79
2021/01/02 09:37:41;;;;;;;16.55;7.13;;;6.10;99.90;;;;;;5028780;28;20686;-79
2021/01/02 09:40:18;;;;;;;15.00;7.53;;;6.20;99.90;;;;;;5029467;28;20697;-77
2021/01/02 09:42:44;;;;;;;20.08;6.45;;;6.20;99.90;;;;;;5031122;28;20664;-81
2021/01/02 09:45:11;;;;;;;15.88;6.80;;;6.20;99.90;;;;;;5033908;28;20203;-80
2021/01/02 09:47:38;;;;;;;23.17;6.88;;;6.20;99.90;;;;;;5032716;28;20550;-80
2021/01/02 09:50:06;;;;;;;13.15;6.15;;;6.20;99.90;;;;;;5034939;28;20215;-78
2021/01/02 09:52:32;;;;;;;16.20;6.45;;;6.20;99.90;;;;;;5033081;28;20188;-79
2021/01/02 09:55:01;;;;;;;17.10;7.05;;;6.30;99.90;;;;;;5034523;28;20188;-80
2021/01/02 09:57:28;;;;;;;15.80;6.78;;;6.30;99.90;;;;;;5032754;28;21186;-78
2021/01/02 09:59:54;;;;;;;20.60;8.18;;;6.40;99.90;;;;;;5034418;28;20196;-80
2021/01/02 10:02:21;;;;;;;19.60;7.57;;;6.40;99.90;;;;;;5032789;28;20596;-79
2021/01/02 10:04:49;;;;;;;16.30;7.88;;;6.40;99.90;;;;;;5032734;28;20211;-80
2021/01/02 10:07:17;;;;;;;18.90;8.05;;;6.50;99.90;;;;;;5030241;28;20195;-80
2021/01/02 10:09:46;;;;;;;17.75;7.70;;;6.60;99.90;;;;;;5032881;28;20199;-79
2021/01/02 10:12:14;;;;;;;14.95;7.13;;;6.60;99.90;;;;;;5031230;28;20230;-80
2021/01/02 10:14:42;;;;;;;12.80;7.15;;;6.60;99.90;;;;;;5032725;28;20203;-79
2021/01/02 10:17:10;;;;;;;17.88;6.65;;;6.70;99.90;;;;;;5032467;28;20215;-79
2021/01/02 10:19:40;;;;;;;17.17;7.75;;;6.80;99.90;;;;;;5033135;28;20199;-80
2021/01/02 10:22:06;;;;;;;19.60;8.40;;;6.90;99.90;;;;;;5031203;28;20563;-80
2021/01/02 10:24:33;;;;;;;21.08;9.20;;;6.90;99.90;;;;;;5032329;28;20204;-79
2021/01/02 10:26:59;;;;;;;19.17;8.55;;;7.00;99.90;;;;;;5032513;28;20209;-80
2021/01/02 10:29:25;;;;;;;15.80;8.57;;;7.10;99.90;;;;;;5031172;28;20211;-80
2021/01/02 10:31:57;;;;;;;19.40;8.73;;;7.10;99.90;;;;;;5032045;28;20272;-79
2021/01/02 10:34:23;;;;;;;16.85;8.65;;;7.20;99.90;;;;;;5032121;28;20231;-80
2021/01/02 10:36:49;;;;;;;14.48;8.40;;;7.20;99.90;;;;;;5032684;28;20196;-80
2021/01/02 10:39:15;;;;;;;20.23;8.60;;;7.20;99.90;;;;;;5031332;28;20612;-79
2021/01/02 10:41:45;;;;;;;12.35;6.65;;;7.30;99.90;;;;;;5030306;28;20196;-80
2021/01/02 10:44:12;;;;;;;13.27;6.75;;;7.30;99.90;;;;;;5033421;28;20200;-80
2021/01/02 10:46:42;;;;;;;15.40;7.80;;;7.30;99.90;;;;;;5031642;28;20203;-78
2021/01/02 10:49:10;;;;;;;16.65;8.43;;;7.30;99.90;;;;;;5032884;28;20616;-77
2021/01/02 10:51:36;;;;;;;17.15;8.05;;;7.30;99.90;;;;;;5033416;28;20270;-79
2021/01/02 10:54:02;;;;;;;21.65;8.27;;;7.30;99.90;;;;;;5031261;28;20199;-78
2021/01/02 10:56:29;;;;;;;14.90;8.68;;;7.30;99.90;;;;;;5033773;28;20196;-77
2021/01/02 10:58:55;;;;;;;15.30;8.50;;;7.30;99.90;;;;;;5031802;28;20196;-79
2021/01/02 11:01:21;;;;;;;16.08;8.65;;;7.30;99.90;;;;;;5030527;28;20199;-79
2021/01/02 11:03:47;;;;;;;21.02;8.80;;;7.40;99.90;;;;;;5031650;28;20204;-77
2021/01/02 11:06:16;;;;;;;16.52;9.20;;;7.40;99.90;;;;;;5031989;28;20207;-78
2021/01/02 11:08:42;;;;;;;18.08;8.07;;;7.50;99.90;;;;;;5030593;28;20204;-78
2021/01/02 11:11:09;;;;;;;17.83;7.38;;;7.50;99.90;;;;;;5032067;28;20223;-78
2021/01/02 11:13:36;;;;;;;14.35;7.22;;;7.50;99.90;;;;;;5030455;28;20203;-77
2021/01/02 11:16:02;;;;;;;16.50;7.35;;;7.50;99.90;;;;;;5033287;28;20207;-77
2021/01/02 11:18:29;;;;;;;17.50;6.82;;;7.60;99.90;;;;;;5029655;28;20192;-78
2021/01/02 11:20:56;;;;;;;15.48;6.65;;;7.60;99.90;;;;;;5032770;28;20242;-79
2021/01/02 11:23:23;;;;;;;11.70;5.35;;;7.70;99.90;;;;;;5029745;28;20204;-78
2021/01/02 11:25:49;;;;;;;18.17;5.20;;;7.70;99.90;;;;;;5033097;28;20208;-77
2021/01/02 11:28:15;;;;;;;17.67;4.78;;;7.80;99.90;;;;;;5030991;28;20203;-77
2021/01/02 11:30:42;;;;;;;14.63;4.72;;;7.80;99.90;;;;;;5032502;28;20220;-78
2021/01/02 11:33:08;;;;;;;15.20;4.78;;;7.80;99.90;;;;;;5029935;28;20723;-77
2021/01/02 11:35:34;;;;;;;12.35;4.93;;;7.80;99.90;;;;;;5031667;28;20199;-78
2021/01/02 11:38:01;;;;;;;18.95;6.28;;;7.80;99.90;;;;;;5031315;28;20200;-77
2021/01/02 11:40:28;;;;;;;12.25;5.70;;;7.80;99.90;;;;;;5030741;28;20629;-77
2021/01/02 11:42:55;;;;;;;14.18;5.55;;;7.80;99.90;;;;;;5029790;28;20192;-77
2021/01/02 11:45:22;;;;;;;12.25;4.88;;;7.80;99.90;;;;;;5029956;28;20298;-78
2021/01/02 11:47:51;;;;;;;10.77;4.78;;;7.70;99.90;;;;;;5029240;28;20207;-78
2021/01/02 11:50:18;;;;;;;16.65;6.25;;;7.80;99.90;;;;;;5032298;28;20261;-77
2021/01/02 11:52:44;;;;;;;14.90;4.13;;;7.80;99.90;;;;;;5031394;28;20564;-80
2021/01/02 11:55:11;;;;;;;18.40;3.83;;;7.80;99.90;;;;;;5032370;28;20660;-79
2021/01/02 11:57:38;;;;;;;22.65;3.97;;;7.80;99.90;;;;;;5029905;28;20200;-79
2021/01/02 12:00:06;;;;;;;14.88;3.20;;;7.80;99.90;;;;;;5032870;28;20204;-80
2021/01/02 12:02:34;;;;;;;19.67;2.95;;;7.80;99.90;;;;;;5031430;28;20590;-82
2021/01/02 12:05:01;;;;;;;15.50;3.65;;;7.90;99.90;;;;;;5030349;28;20207;-83
2021/01/02 12:07:28;;;;;;;13.68;3.40;;;7.90;99.90;;;;;;5031366;28;20207;-84
2021/01/02 12:09:55;;;;;;;18.02;3.17;;;8.00;99.90;;;;;;5031959;28;20196;-83
2021/01/02 12:12:21;;;;;;;10.13;2.63;;;8.00;99.90;;;;;;5031184;28;20219;-79
2021/01/02 12:14:48;;;;;;;11.50;2.80;;;8.10;99.90;;;;;;5031473;28;20199;-81
2021/01/02 12:17:15;;;;;;;14.68;2.45;;;8.20;99.90;;;;;;5029466;28;20581;-81
2021/01/02 12:19:42;;;;;;;9.60;1.92;;;8.20;99.90;;;;;;5028852;28;20204;-78
2021/01/02 12:22:10;;;;;;;11.57;1.90;;;8.20;99.90;;;;;;5025863;28;20188;-76
2021/01/02 12:24:37;;;;;;;6.68;1.60;;;8.30;99.90;;;;;;5031552;28;20199;-78
2021/01/02 12:27:05;;;;;;;2.15;0.85;;;8.30;99.90;;;;;;5026317;28;20212;-76
2021/01/02 12:29:33;;;;;;;4.15;0.70;;;8.30;99.90;;;;;;5031521;28;20207;-78
2021/01/02 12:32:05;;;;;;;2.35;0.80;;;8.30;99.90;;;;;;5030344;28;20776;-78
2021/01/02 12:34:33;;;;;;;3.30;0.77;;;8.30;99.90;;;;;;5030221;28;20358;-79
2021/01/02 12:37:02;;;;;;;10.18;1.10;;;8.20;99.90;;;;;;5028455;28;20208;-77
2021/01/02 12:39:30;;;;;;;11.25;1.20;;;8.10;99.90;;;;;;5028889;28;20600;-78
2021/01/02 12:41:58;;;;;;;20.02;1.40;;;7.90;99.90;;;;;;5031752;28;20211;-82
2021/01/02 12:44:25;;;;;;;3.45;0.80;;;7.50;99.90;;;;;;5029716;28;20243;-80
2021/01/02 12:46:53;;;;;;;6.50;0.80;;;7.10;99.90;;;;;;5026088;28;20207;-80
2021/01/02 12:49:23;;;;;;;5.05;1.52;;;6.70;99.90;;;;;;5028523;28;20203;-82
2021/01/02 12:51:52;;;;;;;4.30;0.70;;;6.40;99.90;;;;;;5029773;28;20245;-82
2021/01/02 12:54:18;;;;;;;4.75;0.70;;;6.20;99.90;;;;;;5031673;28;20202;-79
2021/01/02 12:56:45;;;;;;;5.35;2.60;;;6.10;99.90;;;;;;5029514;28;20257;-79
2021/01/02 12:59:12;;;;;;;2.58;0.82;;;6.00;99.90;;;;;;5030903;28;20192;-80
2021/01/02 13:01:39;;;;;;;3.75;0.70;;;6.00;99.90;;;;;;5030189;28;20561;-79
2021/01/02 13:04:06;;;;;;;2.67;0.73;;;5.90;99.90;;;;;;5031436;28;20196;-82